sensor_id;sensor_type;location;lat;lon;timestamp;P1;durP1;ratioP1;P2;durP2;ratioP2
20557;SDS011;10437;48.156;11.530;2022-12-18T00:02:11;59.63;;;19.70;;
20557;SDS011;10437;48.156;11.530;2022-12-18T00:04:39;57.70;;;20.80;;
20557;SDS011;10437;48.156;11.530;2022-12-18T00:07:06;49.60;;;18.50;;
20557;SDS011;10437;48.156;11.530;2022-12-18T00:09:33;51.20;;;18.40;;
20557;SDS011;10437;48.156;11.530;2022-12-18T00:12:01;54.77;;;19.50;;
20557;SDS011;10437;48.156;11.530;2022-12-18T00:14:28;49.27;;;17.43;;
20557;SDS011;10437;48.156;11.530;2022-12-18T00:16:55;53.50;;;17.93;;
20557;SDS011;10437;48.156;11.530;2022-12-18T00:19:23;52.07;;;18.03;;
20557;SDS011;10437;48.156;11.530;2022-12-18T00:21:52;58.43;;;18.10;;
20557;SDS011;10437;48.156;11.530;2022-12-18T00:24:19;51.27;;;17.37;;
20557;SDS011;10437;48.156;11.530;2022-12-18T00:26:46;53.47;;;18.20;;
20557;SDS011;10437;48.156;11.530;2022-12-18T00:29:13;56.57;;;18.57;;
20557;SDS011;10437;48.156;11.530;2022-12-18T00:31:41;50.63;;;18.30;;
20557;SDS011;10437;48.156;11.530;2022-12-18T00:34:09;53.87;;;20.17;;
20557;SDS011;10437;48.156;11.530;2022-12-18T00:36:37;60.57;;;19.63;;
20557;SDS011;10437;48.156;11.530;2022-12-18T00:39:06;57.10;;;18.53;;
20557;SDS011;10437;48.156;11.530;2022-12-18T00:41:33;59.83;;;19.23;;
20557;SDS011;10437;48.156;11.530;2022-12-18T00:44:18;54.60;;;19.20;;
20557;SDS011;10437;48.156;11.530;2022-12-18T00:46:45;57.53;;;19.07;;
20557;SDS011;10437;48.156;11.530;2022-12-18T00:49:13;57.20;;;18.63;;
20557;SDS011;10437;48.156;11.530;2022-12-18T00:51:41;61.53;;;19.97;;
20557;SDS011;10437;48.156;11.530;2022-12-18T00:54:09;63.93;;;19.33;;
20557;SDS011;10437;48.156;11.530;2022-12-18T00:56:37;48.73;;;16.93;;
20557;SDS011;10437;48.156;11.530;2022-12-18T00:59:05;56.57;;;18.93;;
20557;SDS011;10437;48.156;11.530;2022-12-18T01:01:32;57.03;;;18.63;;
20557;SDS011;10437;48.156;11.530;2022-12-18T01:03:59;55.17;;;17.63;;
20557;SDS011;10437;48.156;11.530;2022-12-18T01:06:27;53.80;;;17.07;;
20557;SDS011;10437;48.156;11.530;2022-12-18T01:08:54;57.13;;;17.47;;
20557;SDS011;10437;48.156;11.530;2022-12-18T01:11:23;56.33;;;18.53;;
20557;SDS011;10437;48.156;11.530;2022-12-18T01:13:51;59.90;;;18.87;;
20557;SDS011;10437;48.156;11.530;2022-12-18T01:16:19;57.90;;;16.87;;
20557;SDS011;10437;48.156;11.530;2022-12-18T01:18:46;57.93;;;17.70;;
20557;SDS011;10437;48.156;11.530;2022-12-18T01:21:14;58.60;;;17.57;;
20557;SDS011;10437;48.156;11.530;2022-12-18T01:23:42;53.73;;;16.13;;
20557;SDS011;10437;48.156;11.530;2022-12-18T01:26:10;51.90;;;17.00;;
20557;SDS011;10437;48.156;11.530;2022-12-18T01:28:40;51.83;;;17.30;;
20557;SDS011;10437;48.156;11.530;2022-12-18T01:31:09;54.07;;;17.50;;
20557;SDS011;10437;48.156;11.530;2022-12-18T01:33:42;56.80;;;17.30;;
20557;SDS011;10437;48.156;11.530;2022-12-18T01:36:14;52.87;;;17.17;;
20557;SDS011;10437;48.156;11.530;2022-12-18T01:38:42;49.30;;;16.77;;
20557;SDS011;10437;48.156;11.530;2022-12-18T01:41:09;54.67;;;16.87;;
20557;SDS011;10437;48.156;11.530;2022-12-18T01:43:48;51.40;;;16.33;;
20557;SDS011;10437;48.156;11.530;2022-12-18T01:46:18;50.83;;;16.67;;
20557;SDS011;10437;48.156;11.530;2022-12-18T01:48:46;50.70;;;16.73;;
20557;SDS011;10437;48.156;11.530;2022-12-18T01:51:16;46.93;;;16.43;;
20557;SDS011;10437;48.156;11.530;2022-12-18T01:53:43;55.80;;;17.87;;
20557;SDS011;10437;48.156;11.530;2022-12-18T01:56:15;55.00;;;17.33;;
20557;SDS011;10437;48.156;11.530;2022-12-18T01:58:46;48.80;;;17.23;;
20557;SDS011;10437;48.156;11.530;2022-12-18T02:01:20;50.50;;;17.67;;
20557;SDS011;10437;48.156;11.530;2022-12-18T02:03:48;56.20;;;16.60;;
20557;SDS011;10437;48.156;11.530;2022-12-18T02:06:17;45.33;;;15.30;;
20557;SDS011;10437;48.156;11.530;2022-12-18T02:08:50;51.20;;;15.43;;
20557;SDS011;10437;48.156;11.530;2022-12-18T02:11:27;48.97;;;15.73;;
20557;SDS011;10437;48.156;11.530;2022-12-18T02:14:08;45.50;;;16.93;;
20557;SDS011;10437;48.156;11.530;2022-12-18T02:16:43;51.13;;;16.93;;
20557;SDS011;10437;48.156;11.530;2022-12-18T02:19:20;53.23;;;17.97;;
20557;SDS011;10437;48.156;11.530;2022-12-18T02:22:04;56.17;;;18.07;;
20557;SDS011;10437;48.156;11.530;2022-12-18T02:24:41;54.87;;;18.80;;
20557;SDS011;10437;48.156;11.530;2022-12-18T02:27:20;51.97;;;16.93;;
20557;SDS011;10437;48.156;11.530;2022-12-18T02:29:48;49.27;;;16.80;;
20557;SDS011;10437;48.156;11.530;2022-12-18T02:32:18;52.07;;;17.10;;
20557;SDS011;10437;48.156;11.530;2022-12-18T02:34:49;58.33;;;18.63;;
20557;SDS011;10437;48.156;11.530;2022-12-18T02:37:18;53.47;;;18.03;;
20557;SDS011;10437;48.156;11.530;2022-12-18T02:39:46;56.77;;;18.90;;
20557;SDS011;10437;48.156;11.530;2022-12-18T02:42:15;55.03;;;17.97;;
20557;SDS011;10437;48.156;11.530;2022-12-18T02:44:45;56.90;;;18.37;;
20557;SDS011;10437;48.156;11.530;2022-12-18T02:47:14;55.97;;;19.90;;
20557;SDS011;10437;48.156;11.530;2022-12-18T02:49:44;62.47;;;18.90;;
20557;SDS011;10437;48.156;11.530;2022-12-18T02:52:22;61.30;;;19.87;;
20557;SDS011;10437;48.156;11.530;2022-12-18T02:55:00;58.33;;;19.47;;
20557;SDS011;10437;48.156;11.530;2022-12-18T02:57:34;69.47;;;21.03;;
20557;SDS011;10437;48.156;11.530;2022-12-18T03:00:08;56.20;;;17.93;;
20557;SDS011;10437;48.156;11.530;2022-12-18T03:02:39;61.47;;;21.83;;
20557;SDS011;10437;48.156;11.530;2022-12-18T03:05:13;61.80;;;20.10;;
20557;SDS011;10437;48.156;11.530;2022-12-18T03:07:43;67.87;;;19.60;;
20557;SDS011;10437;48.156;11.530;2022-12-18T03:10:16;60.53;;;18.87;;
20557;SDS011;10437;48.156;11.530;2022-12-18T03:12:48;60.77;;;20.27;;
20557;SDS011;10437;48.156;11.530;2022-12-18T03:15:21;60.03;;;18.60;;
20557;SDS011;10437;48.156;11.530;2022-12-18T03:17:52;61.53;;;19.20;;
20557;SDS011;10437;48.156;11.530;2022-12-18T03:20:23;63.37;;;19.83;;
20557;SDS011;10437;48.156;11.530;2022-12-18T03:22:53;57.10;;;17.80;;
20557;SDS011;10437;48.156;11.530;2022-12-18T03:25:23;54.43;;;18.23;;
20557;SDS011;10437;48.156;11.530;2022-12-18T03:27:53;61.63;;;19.57;;
20557;SDS011;10437;48.156;11.530;2022-12-18T03:30:24;51.50;;;18.57;;
20557;SDS011;10437;48.156;11.530;2022-12-18T03:32:56;54.80;;;18.57;;
20557;SDS011;10437;48.156;11.530;2022-12-18T03:35:28;62.60;;;19.33;;
20557;SDS011;10437;48.156;11.530;2022-12-18T03:37:57;63.83;;;19.83;;
20557;SDS011;10437;48.156;11.530;2022-12-18T03:40:25;63.03;;;19.37;;
20557;SDS011;10437;48.156;11.530;2022-12-18T03:42:56;56.57;;;18.43;;
20557;SDS011;10437;48.156;11.530;2022-12-18T03:45:32;53.93;;;17.63;;
20557;SDS011;10437;48.156;11.530;2022-12-18T03:48:03;66.77;;;20.27;;
20557;SDS011;10437;48.156;11.530;2022-12-18T03:50:37;60.10;;;20.20;;
20557;SDS011;10437;48.156;11.530;2022-12-18T03:53:15;59.40;;;18.27;;
20557;SDS011;10437;48.156;11.530;2022-12-18T03:55:48;57.03;;;18.63;;
20557;SDS011;10437;48.156;11.530;2022-12-18T03:58:18;55.13;;;18.03;;
20557;SDS011;10437;48.156;11.530;2022-12-18T04:00:49;64.93;;;20.17;;
20557;SDS011;10437;48.156;11.530;2022-12-18T04:03:19;58.00;;;19.07;;
20557;SDS011;10437;48.156;11.530;2022-12-18T04:05:47;57.07;;;18.70;;
20557;SDS011;10437;48.156;11.530;2022-12-18T04:08:16;60.30;;;19.33;;
20557;SDS011;10437;48.156;11.530;2022-12-18T04:10:44;56.77;;;17.87;;
20557;SDS011;10437;48.156;11.530;2022-12-18T04:13:11;54.33;;;19.83;;
20557;SDS011;10437;48.156;11.530;2022-12-18T04:15:38;62.27;;;19.50;;
20557;SDS011;10437;48.156;11.530;2022-12-18T04:18:07;52.80;;;18.00;;
20557;SDS011;10437;48.156;11.530;2022-12-18T04:20:34;57.83;;;17.83;;
20557;SDS011;10437;48.156;11.530;2022-12-18T04:23:01;54.57;;;17.37;;
20557;SDS011;10437;48.156;11.530;2022-12-18T04:25:28;58.90;;;19.87;;
20557;SDS011;10437;48.156;11.530;2022-12-18T04:27:55;52.87;;;18.17;;
20557;SDS011;10437;48.156;11.530;2022-12-18T04:30:23;60.20;;;18.33;;
20557;SDS011;10437;48.156;11.530;2022-12-18T04:32:50;56.53;;;18.60;;
20557;SDS011;10437;48.156;11.530;2022-12-18T04:35:18;49.47;;;17.30;;
20557;SDS011;10437;48.156;11.530;2022-12-18T04:37:45;55.63;;;18.00;;
20557;SDS011;10437;48.156;11.530;2022-12-18T04:40:12;56.80;;;17.97;;
20557;SDS011;10437;48.156;11.530;2022-12-18T04:42:39;54.30;;;17.50;;
20557;SDS011;10437;48.156;11.530;2022-12-18T04:45:07;55.23;;;18.67;;
20557;SDS011;10437;48.156;11.530;2022-12-18T04:47:34;51.53;;;16.87;;
20557;SDS011;10437;48.156;11.530;2022-12-18T04:50:02;52.50;;;18.07;;
20557;SDS011;10437;48.156;11.530;2022-12-18T04:52:30;55.87;;;17.00;;
20557;SDS011;10437;48.156;11.530;2022-12-18T04:54:57;51.17;;;16.87;;
20557;SDS011;10437;48.156;11.530;2022-12-18T04:57:24;50.63;;;17.20;;
20557;SDS011;10437;48.156;11.530;2022-12-18T04:59:51;52.90;;;16.63;;
20557;SDS011;10437;48.156;11.530;2022-12-18T05:02:19;52.73;;;17.23;;
20557;SDS011;10437;48.156;11.530;2022-12-18T05:04:46;55.70;;;17.70;;
20557;SDS011;10437;48.156;11.530;2022-12-18T05:07:13;54.67;;;18.73;;
20557;SDS011;10437;48.156;11.530;2022-12-18T05:09:41;47.90;;;15.87;;
20557;SDS011;10437;48.156;11.530;2022-12-18T05:12:08;51.37;;;17.03;;
20557;SDS011;10437;48.156;11.530;2022-12-18T05:14:35;49.73;;;16.13;;
20557;SDS011;10437;48.156;11.530;2022-12-18T05:17:02;48.57;;;17.03;;
20557;SDS011;10437;48.156;11.530;2022-12-18T05:19:30;52.27;;;17.43;;
20557;SDS011;10437;48.156;11.530;2022-12-18T05:21:57;54.23;;;17.77;;
20557;SDS011;10437;48.156;11.530;2022-12-18T05:24:24;50.03;;;15.73;;
20557;SDS011;10437;48.156;11.530;2022-12-18T05:26:52;46.23;;;16.37;;
20557;SDS011;10437;48.156;11.530;2022-12-18T05:29:19;58.07;;;17.27;;
20557;SDS011;10437;48.156;11.530;2022-12-18T05:31:46;49.30;;;16.90;;
20557;SDS011;10437;48.156;11.530;2022-12-18T05:34:13;49.27;;;16.00;;
20557;SDS011;10437;48.156;11.530;2022-12-18T05:36:40;43.57;;;16.53;;
20557;SDS011;10437;48.156;11.530;2022-12-18T05:39:08;49.30;;;17.27;;
20557;SDS011;10437;48.156;11.530;2022-12-18T05:41:35;52.27;;;16.93;;
20557;SDS011;10437;48.156;11.530;2022-12-18T05:44:03;49.23;;;16.83;;
20557;SDS011;10437;48.156;11.530;2022-12-18T05:46:30;47.07;;;16.33;;
20557;SDS011;10437;48.156;11.530;2022-12-18T05:48:58;39.97;;;15.07;;
20557;SDS011;10437;48.156;11.530;2022-12-18T05:51:26;49.73;;;17.53;;
20557;SDS011;10437;48.156;11.530;2022-12-18T05:53:53;45.90;;;15.13;;
20557;SDS011;10437;48.156;11.530;2022-12-18T05:56:20;50.20;;;15.90;;
20557;SDS011;10437;48.156;11.530;2022-12-18T05:58:51;47.33;;;16.53;;
20557;SDS011;10437;48.156;11.530;2022-12-18T06:01:21;42.47;;;15.50;;
20557;SDS011;10437;48.156;11.530;2022-12-18T06:03:49;49.63;;;16.00;;
20557;SDS011;10437;48.156;11.530;2022-12-18T06:06:17;50.97;;;16.20;;
20557;SDS011;10437;48.156;11.530;2022-12-18T06:08:45;42.30;;;16.47;;
20557;SDS011;10437;48.156;11.530;2022-12-18T06:11:12;50.00;;;15.67;;
20557;SDS011;10437;48.156;11.530;2022-12-18T06:13:40;45.63;;;16.27;;
20557;SDS011;10437;48.156;11.530;2022-12-18T06:16:07;47.07;;;15.13;;
20557;SDS011;10437;48.156;11.530;2022-12-18T06:18:38;46.13;;;14.73;;
20557;SDS011;10437;48.156;11.530;2022-12-18T06:21:05;49.10;;;16.37;;
20557;SDS011;10437;48.156;11.530;2022-12-18T06:23:32;46.33;;;15.80;;
20557;SDS011;10437;48.156;11.530;2022-12-18T06:26:03;49.77;;;15.50;;
20557;SDS011;10437;48.156;11.530;2022-12-18T06:28:31;39.10;;;14.80;;
20557;SDS011;10437;48.156;11.530;2022-12-18T06:30:58;49.23;;;15.47;;
20557;SDS011;10437;48.156;11.530;2022-12-18T06:33:25;47.13;;;15.83;;
20557;SDS011;10437;48.156;11.530;2022-12-18T06:35:54;44.90;;;14.83;;
20557;SDS011;10437;48.156;11.530;2022-12-18T06:38:26;46.80;;;15.03;;
20557;SDS011;10437;48.156;11.530;2022-12-18T06:40:53;44.60;;;15.03;;
20557;SDS011;10437;48.156;11.530;2022-12-18T06:43:20;45.20;;;15.03;;
20557;SDS011;10437;48.156;11.530;2022-12-18T06:45:47;40.63;;;15.43;;
20557;SDS011;10437;48.156;11.530;2022-12-18T06:48:17;42.47;;;14.87;;
20557;SDS011;10437;48.156;11.530;2022-12-18T06:50:45;44.57;;;15.30;;
20557;SDS011;10437;48.156;11.530;2022-12-18T06:53:13;38.27;;;13.90;;
20557;SDS011;10437;48.156;11.530;2022-12-18T06:55:40;41.33;;;15.43;;
20557;SDS011;10437;48.156;11.530;2022-12-18T06:58:07;45.60;;;16.53;;
20557;SDS011;10437;48.156;11.530;2022-12-18T07:00:35;42.90;;;14.97;;
20557;SDS011;10437;48.156;11.530;2022-12-18T07:03:02;46.13;;;15.40;;
20557;SDS011;10437;48.156;11.530;2022-12-18T07:05:29;41.23;;;15.30;;
20557;SDS011;10437;48.156;11.530;2022-12-18T07:07:56;47.10;;;16.13;;
20557;SDS011;10437;48.156;11.530;2022-12-18T07:10:24;43.77;;;14.63;;
20557;SDS011;10437;48.156;11.530;2022-12-18T07:12:52;45.70;;;15.77;;
20557;SDS011;10437;48.156;11.530;2022-12-18T07:15:19;47.40;;;15.60;;
20557;SDS011;10437;48.156;11.530;2022-12-18T07:17:46;44.77;;;15.57;;
20557;SDS011;10437;48.156;11.530;2022-12-18T07:20:13;46.40;;;15.73;;
20557;SDS011;10437;48.156;11.530;2022-12-18T07:22:40;51.90;;;17.20;;
20557;SDS011;10437;48.156;11.530;2022-12-18T07:25:07;45.80;;;15.23;;
20557;SDS011;10437;48.156;11.530;2022-12-18T07:27:36;46.13;;;15.13;;
20557;SDS011;10437;48.156;11.530;2022-12-18T07:30:03;43.20;;;14.37;;
20557;SDS011;10437;48.156;11.530;2022-12-18T07:32:30;41.50;;;14.83;;
20557;SDS011;10437;48.156;11.530;2022-12-18T07:34:57;47.83;;;14.97;;
20557;SDS011;10437;48.156;11.530;2022-12-18T07:37:24;43.80;;;15.30;;
20557;SDS011;10437;48.156;11.530;2022-12-18T07:39:52;39.23;;;14.83;;
20557;SDS011;10437;48.156;11.530;2022-12-18T07:42:19;41.70;;;15.10;;
20557;SDS011;10437;48.156;11.530;2022-12-18T07:45:00;43.73;;;15.17;;
20557;SDS011;10437;48.156;11.530;2022-12-18T07:47:27;41.03;;;13.57;;
20557;SDS011;10437;48.156;11.530;2022-12-18T07:49:54;40.97;;;14.77;;
20557;SDS011;10437;48.156;11.530;2022-12-18T07:52:21;48.73;;;16.37;;
20557;SDS011;10437;48.156;11.530;2022-12-18T07:54:48;44.83;;;15.07;;
20557;SDS011;10437;48.156;11.530;2022-12-18T07:57:15;43.97;;;15.70;;
20557;SDS011;10437;48.156;11.530;2022-12-18T07:59:43;44.37;;;14.83;;
20557;SDS011;10437;48.156;11.530;2022-12-18T08:02:11;48.33;;;16.00;;
20557;SDS011;10437;48.156;11.530;2022-12-18T08:04:38;45.87;;;14.70;;
20557;SDS011;10437;48.156;11.530;2022-12-18T08:07:05;40.43;;;14.93;;
20557;SDS011;10437;48.156;11.530;2022-12-18T08:09:32;48.10;;;15.97;;
20557;SDS011;10437;48.156;11.530;2022-12-18T08:11:59;46.13;;;15.97;;
20557;SDS011;10437;48.156;11.530;2022-12-18T08:14:26;83.53;;;27.13;;
20557;SDS011;10437;48.156;11.530;2022-12-18T08:16:54;46.10;;;16.40;;
20557;SDS011;10437;48.156;11.530;2022-12-18T08:19:22;46.07;;;14.83;;
20557;SDS011;10437;48.156;11.530;2022-12-18T08:21:49;48.23;;;16.60;;
20557;SDS011;10437;48.156;11.530;2022-12-18T08:24:16;41.30;;;15.00;;
20557;SDS011;10437;48.156;11.530;2022-12-18T08:26:43;43.03;;;15.50;;
20557;SDS011;10437;48.156;11.530;2022-12-18T08:29:10;40.10;;;14.53;;
20557;SDS011;10437;48.156;11.530;2022-12-18T08:31:37;39.83;;;14.13;;
20557;SDS011;10437;48.156;11.530;2022-12-18T08:34:05;42.87;;;15.17;;
20557;SDS011;10437;48.156;11.530;2022-12-18T08:36:33;42.27;;;13.90;;
20557;SDS011;10437;48.156;11.530;2022-12-18T08:39:00;43.67;;;14.07;;
20557;SDS011;10437;48.156;11.530;2022-12-18T08:41:27;40.83;;;13.67;;
20557;SDS011;10437;48.156;11.530;2022-12-18T08:43:54;39.83;;;14.27;;
20557;SDS011;10437;48.156;11.530;2022-12-18T08:46:39;35.90;;;14.10;;
20557;SDS011;10437;48.156;11.530;2022-12-18T08:49:07;40.43;;;13.93;;
20557;SDS011;10437;48.156;11.530;2022-12-18T08:51:36;36.63;;;13.37;;
20557;SDS011;10437;48.156;11.530;2022-12-18T08:54:03;38.20;;;13.30;;
20557;SDS011;10437;48.156;11.530;2022-12-18T08:56:30;39.90;;;14.37;;
20557;SDS011;10437;48.156;11.530;2022-12-18T08:58:58;42.10;;;14.13;;
20557;SDS011;10437;48.156;11.530;2022-12-18T09:01:25;36.70;;;13.70;;
20557;SDS011;10437;48.156;11.530;2022-12-18T09:03:52;49.23;;;17.43;;
20557;SDS011;10437;48.156;11.530;2022-12-18T09:06:20;39.97;;;14.60;;
20557;SDS011;10437;48.156;11.530;2022-12-18T09:08:49;40.47;;;13.70;;
20557;SDS011;10437;48.156;11.530;2022-12-18T09:11:18;35.53;;;13.57;;
20557;SDS011;10437;48.156;11.530;2022-12-18T09:13:46;37.53;;;12.80;;
20557;SDS011;10437;48.156;11.530;2022-12-18T09:16:13;43.03;;;14.00;;
20557;SDS011;10437;48.156;11.530;2022-12-18T09:18:41;36.17;;;14.10;;
20557;SDS011;10437;48.156;11.530;2022-12-18T09:21:08;38.90;;;13.10;;
20557;SDS011;10437;48.156;11.530;2022-12-18T09:23:36;37.43;;;13.30;;
20557;SDS011;10437;48.156;11.530;2022-12-18T09:26:05;37.30;;;13.40;;
20557;SDS011;10437;48.156;11.530;2022-12-18T09:28:32;38.77;;;13.67;;
20557;SDS011;10437;48.156;11.530;2022-12-18T09:31:03;36.10;;;13.40;;
20557;SDS011;10437;48.156;11.530;2022-12-18T09:33:32;36.33;;;13.10;;
20557;SDS011;10437;48.156;11.530;2022-12-18T09:36:00;36.87;;;12.87;;
20557;SDS011;10437;48.156;11.530;2022-12-18T09:38:28;39.07;;;12.17;;
20557;SDS011;10437;48.156;11.530;2022-12-18T09:40:56;35.53;;;12.73;;
20557;SDS011;10437;48.156;11.530;2022-12-18T09:43:28;35.83;;;13.10;;
20557;SDS011;10437;48.156;11.530;2022-12-18T09:46:00;29.57;;;11.53;;
20557;SDS011;10437;48.156;11.530;2022-12-18T09:48:31;35.20;;;12.53;;
20557;SDS011;10437;48.156;11.530;2022-12-18T09:51:03;37.43;;;12.83;;
20557;SDS011;10437;48.156;11.530;2022-12-18T09:53:35;34.63;;;12.57;;
20557;SDS011;10437;48.156;11.530;2022-12-18T09:56:10;36.10;;;13.70;;
20557;SDS011;10437;48.156;11.530;2022-12-18T09:58:43;35.70;;;13.53;;
20557;SDS011;10437;48.156;11.530;2022-12-18T10:01:15;32.77;;;12.43;;
20557;SDS011;10437;48.156;11.530;2022-12-18T10:03:46;38.47;;;12.87;;
20557;SDS011;10437;48.156;11.530;2022-12-18T10:06:14;35.50;;;12.90;;
20557;SDS011;10437;48.156;11.530;2022-12-18T10:08:46;35.97;;;12.93;;
20557;SDS011;10437;48.156;11.530;2022-12-18T10:11:26;35.27;;;12.93;;
20557;SDS011;10437;48.156;11.530;2022-12-18T10:14:02;39.93;;;13.17;;
20557;SDS011;10437;48.156;11.530;2022-12-18T10:16:37;32.87;;;12.60;;
20557;SDS011;10437;48.156;11.530;2022-12-18T10:19:16;32.60;;;13.17;;
20557;SDS011;10437;48.156;11.530;2022-12-18T10:22:02;36.60;;;13.00;;
20557;SDS011;10437;48.156;11.530;2022-12-18T10:24:38;39.73;;;14.10;;
20557;SDS011;10437;48.156;11.530;2022-12-18T10:27:10;36.83;;;12.13;;
20557;SDS011;10437;48.156;11.530;2022-12-18T10:29:42;44.17;;;14.53;;
20557;SDS011;10437;48.156;11.530;2022-12-18T10:32:12;37.53;;;13.47;;
20557;SDS011;10437;48.156;11.530;2022-12-18T10:34:44;35.57;;;12.83;;
20557;SDS011;10437;48.156;11.530;2022-12-18T10:37:14;36.93;;;14.13;;
20557;SDS011;10437;48.156;11.530;2022-12-18T10:39:43;38.03;;;13.43;;
20557;SDS011;10437;48.156;11.530;2022-12-18T10:42:11;39.03;;;12.17;;
20557;SDS011;10437;48.156;11.530;2022-12-18T10:44:44;37.60;;;12.97;;
20557;SDS011;10437;48.156;11.530;2022-12-18T10:47:11;29.07;;;12.07;;
20557;SDS011;10437;48.156;11.530;2022-12-18T10:49:42;33.07;;;12.83;;
20557;SDS011;10437;48.156;11.530;2022-12-18T10:52:15;42.73;;;12.80;;
20557;SDS011;10437;48.156;11.530;2022-12-18T10:54:47;35.30;;;12.90;;
20557;SDS011;10437;48.156;11.530;2022-12-18T10:57:17;38.23;;;12.60;;
20557;SDS011;10437;48.156;11.530;2022-12-18T11:00:01;33.00;;;12.60;;
20557;SDS011;10437;48.156;11.530;2022-12-18T11:02:47;37.17;;;12.57;;
20557;SDS011;10437;48.156;11.530;2022-12-18T11:05:25;35.60;;;13.10;;
20557;SDS011;10437;48.156;11.530;2022-12-18T11:07:53;35.23;;;12.93;;
20557;SDS011;10437;48.156;11.530;2022-12-18T11:10:25;29.47;;;11.70;;
20557;SDS011;10437;48.156;11.530;2022-12-18T11:12:54;33.77;;;11.57;;
20557;SDS011;10437;48.156;11.530;2022-12-18T11:15:25;31.27;;;12.37;;
20557;SDS011;10437;48.156;11.530;2022-12-18T11:17:55;34.07;;;11.70;;
20557;SDS011;10437;48.156;11.530;2022-12-18T11:20:26;32.73;;;12.47;;
20557;SDS011;10437;48.156;11.530;2022-12-18T11:22:58;34.57;;;13.10;;
20557;SDS011;10437;48.156;11.530;2022-12-18T11:25:26;29.47;;;12.50;;
20557;SDS011;10437;48.156;11.530;2022-12-18T11:27:54;36.70;;;12.87;;
20557;SDS011;10437;48.156;11.530;2022-12-18T11:30:25;34.50;;;13.50;;
20557;SDS011;10437;48.156;11.530;2022-12-18T11:32:54;35.47;;;12.70;;
20557;SDS011;10437;48.156;11.530;2022-12-18T11:35:27;33.97;;;13.27;;
20557;SDS011;10437;48.156;11.530;2022-12-18T11:38:02;41.87;;;14.27;;
20557;SDS011;10437;48.156;11.530;2022-12-18T11:40:37;41.03;;;14.87;;
20557;SDS011;10437;48.156;11.530;2022-12-18T11:43:09;33.03;;;13.00;;
20557;SDS011;10437;48.156;11.530;2022-12-18T11:45:43;35.47;;;13.03;;
20557;SDS011;10437;48.156;11.530;2022-12-18T11:48:17;38.07;;;12.80;;
20557;SDS011;10437;48.156;11.530;2022-12-18T11:50:49;34.23;;;12.10;;
20557;SDS011;10437;48.156;11.530;2022-12-18T11:53:17;35.00;;;12.90;;
20557;SDS011;10437;48.156;11.530;2022-12-18T11:55:48;34.70;;;12.10;;
20557;SDS011;10437;48.156;11.530;2022-12-18T11:58:26;35.33;;;13.07;;
20557;SDS011;10437;48.156;11.530;2022-12-18T12:01:05;34.13;;;13.00;;
20557;SDS011;10437;48.156;11.530;2022-12-18T12:03:50;34.67;;;12.93;;
20557;SDS011;10437;48.156;11.530;2022-12-18T12:06:32;35.30;;;12.70;;
20557;SDS011;10437;48.156;11.530;2022-12-18T12:09:10;34.47;;;11.83;;
20557;SDS011;10437;48.156;11.530;2022-12-18T12:11:49;36.13;;;13.20;;
20557;SDS011;10437;48.156;11.530;2022-12-18T12:14:25;33.83;;;13.47;;
20557;SDS011;10437;48.156;11.530;2022-12-18T12:17:06;38.43;;;13.90;;
20557;SDS011;10437;48.156;11.530;2022-12-18T12:19:43;35.27;;;13.87;;
20557;SDS011;10437;48.156;11.530;2022-12-18T12:22:13;32.07;;;12.60;;
20557;SDS011;10437;48.156;11.530;2022-12-18T12:24:48;31.17;;;12.27;;
20557;SDS011;10437;48.156;11.530;2022-12-18T12:27:25;31.87;;;12.27;;
20557;SDS011;10437;48.156;11.530;2022-12-18T12:30:00;32.73;;;12.73;;
20557;SDS011;10437;48.156;11.530;2022-12-18T12:32:37;33.07;;;12.23;;
20557;SDS011;10437;48.156;11.530;2022-12-18T12:35:21;30.70;;;12.27;;
20557;SDS011;10437;48.156;11.530;2022-12-18T12:37:56;34.67;;;12.23;;
20557;SDS011;10437;48.156;11.530;2022-12-18T12:40:31;37.00;;;12.17;;
20557;SDS011;10437;48.156;11.530;2022-12-18T12:43:01;30.53;;;11.53;;
20557;SDS011;10437;48.156;11.530;2022-12-18T12:45:39;30.70;;;12.07;;
20557;SDS011;10437;48.156;11.530;2022-12-18T12:48:13;29.90;;;11.47;;
20557;SDS011;10437;48.156;11.530;2022-12-18T12:50:47;41.07;;;13.00;;
20557;SDS011;10437;48.156;11.530;2022-12-18T12:53:18;35.00;;;12.37;;
20557;SDS011;10437;48.156;11.530;2022-12-18T12:55:51;32.50;;;11.37;;
20557;SDS011;10437;48.156;11.530;2022-12-18T12:58:23;32.17;;;12.00;;
20557;SDS011;10437;48.156;11.530;2022-12-18T13:00:59;31.80;;;11.83;;
20557;SDS011;10437;48.156;11.530;2022-12-18T13:03:39;32.23;;;12.17;;
20557;SDS011;10437;48.156;11.530;2022-12-18T13:06:13;33.13;;;12.23;;
20557;SDS011;10437;48.156;11.530;2022-12-18T13:08:52;32.83;;;12.67;;
20557;SDS011;10437;48.156;11.530;2022-12-18T13:11:28;29.60;;;11.40;;
20557;SDS011;10437;48.156;11.530;2022-12-18T13:14:19;33.80;;;12.03;;
20557;SDS011;10437;48.156;11.530;2022-12-18T13:16:48;34.37;;;12.50;;
20557;SDS011;10437;48.156;11.530;2022-12-18T13:19:22;29.30;;;12.20;;
20557;SDS011;10437;48.156;11.530;2022-12-18T13:21:52;30.17;;;11.77;;
20557;SDS011;10437;48.156;11.530;2022-12-18T13:24:23;39.07;;;13.10;;
20557;SDS011;10437;48.156;11.530;2022-12-18T13:26:51;39.97;;;13.47;;
20557;SDS011;10437;48.156;11.530;2022-12-18T13:32:18;35.23;;;13.07;;
20557;SDS011;10437;48.156;11.530;2022-12-18T13:34:48;30.93;;;12.40;;
20557;SDS011;10437;48.156;11.530;2022-12-18T13:37:39;28.93;;;11.63;;
20557;SDS011;10437;48.156;11.530;2022-12-18T13:43:25;33.63;;;12.03;;
20557;SDS011;10437;48.156;11.530;2022-12-18T13:45:59;33.30;;;11.57;;
20557;SDS011;10437;48.156;11.530;2022-12-18T13:48:33;32.53;;;10.73;;
20557;SDS011;10437;48.156;11.530;2022-12-18T13:51:04;31.67;;;12.10;;
20557;SDS011;10437;48.156;11.530;2022-12-18T13:53:35;33.83;;;12.63;;
20557;SDS011;10437;48.156;11.530;2022-12-18T13:56:04;38.17;;;12.80;;
20557;SDS011;10437;48.156;11.530;2022-12-18T13:58:32;35.93;;;13.50;;
20557;SDS011;10437;48.156;11.530;2022-12-18T14:00:59;30.23;;;11.97;;
20557;SDS011;10437;48.156;11.530;2022-12-18T14:03:28;31.07;;;12.07;;
20557;SDS011;10437;48.156;11.530;2022-12-18T14:05:58;36.03;;;12.90;;
20557;SDS011;10437;48.156;11.530;2022-12-18T14:08:29;35.80;;;13.43;;
20557;SDS011;10437;48.156;11.530;2022-12-18T14:11:01;33.23;;;12.87;;
20557;SDS011;10437;48.156;11.530;2022-12-18T14:13:32;36.67;;;13.13;;
20557;SDS011;10437;48.156;11.530;2022-12-18T14:16:02;39.23;;;12.40;;
20557;SDS011;10437;48.156;11.530;2022-12-18T14:18:33;31.13;;;11.73;;
20557;SDS011;10437;48.156;11.530;2022-12-18T14:21:05;36.93;;;12.40;;
20557;SDS011;10437;48.156;11.530;2022-12-18T14:23:34;38.90;;;12.67;;
20557;SDS011;10437;48.156;11.530;2022-12-18T14:26:03;40.97;;;13.50;;
20557;SDS011;10437;48.156;11.530;2022-12-18T14:28:49;38.13;;;12.77;;
20557;SDS011;10437;48.156;11.530;2022-12-18T14:31:19;34.33;;;11.57;;
20557;SDS011;10437;48.156;11.530;2022-12-18T14:33:46;40.37;;;14.33;;